Time;durP1;ratioP1;P1;durP2;ratioP2;P2;SDS_P1;SDS_P2;PMS_P1;PMS_P2;Temp;Humidity;BMP_temperature;BMP_pressure;BME280_temperature;BME280_humidity;BME280_pressure;Samples;Min_cycle;Max_cycle;Signal;HPM_P1;HPM_P2
2023/06/13 00:00:46;;;;;;;7.07;4.82;;;17.20;62.50;;;;;;5079638;28;20036;-35
2023/06/13 00:03:13;;;;;;;5.50;4.97;;;17.10;63.30;;;;;;5069885;28;20032;-33
2023/06/13 00:05:45;;;;;;;5.18;4.75;;;17.10;63.90;;;;;;5081335;28;20492;-33
2023/06/13 00:08:21;;;;;;;4.75;4.32;;;17.10;64.80;;;;;;5077445;28;20028;-33
2023/06/13 00:10:50;;;;;;;6.93;5.45;;;17.00;64.20;;;;;;5079097;28;20032;-34
2023/06/13 00:13:17;;;;;;;5.72;4.78;;;16.90;64.00;;;;;;5075479;28;20036;-35
2023/06/13 00:15:56;;;;;;;5.30;4.80;;;16.90;64.30;;;;;;5076374;28;20028;-33
2023/06/13 00:18:23;;;;;;;6.68;4.90;;;16.80;66.50;;;;;;5075843;28;20036;-34
2023/06/13 00:20:52;;;;;;;5.10;4.65;;;16.80;64.90;;;;;;5069944;28;20040;-34
2023/06/13 00:23:17;;;;;;;6.20;4.90;;;16.70;65.80;;;;;;5067611;28;20038;-35
2023/06/13 00:25:43;;;;;;;6.50;5.05;;;16.70;65.20;;;;;;5047483;28;20044;-33
2023/06/13 00:28:10;;;;;;;6.15;5.50;;;16.70;64.80;;;;;;5093496;28;20508;-33
2023/06/13 00:30:35;;;;;;;7.15;5.55;;;16.70;64.60;;;;;;5083447;28;20039;-33
2023/06/13 00:33:01;;;;;;;5.65;4.93;;;16.70;64.20;;;;;;5077429;28;20028;-33
2023/06/13 00:35:27;;;;;;;7.22;6.32;;;16.70;63.80;;;;;;5082609;28;20039;-34
2023/06/13 00:37:56;;;;;;;6.07;5.47;;;16.70;64.00;;;;;;5062047;28;20111;-36
2023/06/13 00:40:23;;;;;;;6.20;5.57;;;16.80;65.10;;;;;;5064467;28;20031;-33
2023/06/13 00:42:52;;;;;;;7.38;5.45;;;16.80;64.40;;;;;;5083631;28;20043;-34
2023/06/13 00:45:27;;;;;;;8.57;6.63;;;16.70;63.80;;;;;;5062848;28;20032;-33
2023/06/13 00:47:58;;;;;;;7.70;6.38;;;16.70;63.40;;;;;;5078110;28;20036;-36
2023/06/13 00:50:30;;;;;;;6.28;5.60;;;16.70;63.00;;;;;;5066152;28;20449;-34
2023/06/13 00:52:58;;;;;;;8.50;6.28;;;16.80;63.00;;;;;;5069924;28;20035;-33
2023/06/13 00:55:26;;;;;;;7.32;6.55;;;16.70;63.30;;;;;;5087180;28;20110;-33
2023/06/13 00:57:56;;;;;;;7.68;6.47;;;16.70;62.60;;;;;;5074069;28;20119;-34
2023/06/13 01:00:25;;;;;;;7.95;6.35;;;16.70;62.80;;;;;;5073528;28;20085;-33
2023/06/13 01:03:02;;;;;;;7.65;5.85;;;16.70;62.90;;;;;;5072727;28;20032;-33
2023/06/13 01:05:28;;;;;;;7.65;6.57;;;16.70;63.70;;;;;;5071721;28;20039;-32
2023/06/13 01:08:21;;;;;;;9.60;6.95;;;16.70;64.80;;;;;;5075637;28;20482;-34
2023/06/13 01:11:04;;;;;;;7.25;6.50;;;16.70;65.90;;;;;;5070873;28;20040;-34
2023/06/13 01:13:50;;;;;;;8.23;7.13;;;16.60;64.30;;;;;;5074985;28;20032;-34
2023/06/13 01:16:23;;;;;;;7.63;6.88;;;16.60;65.10;;;;;;5077570;28;20094;-34
2023/06/13 01:18:51;;;;;;;7.72;7.03;;;16.60;64.60;;;;;;5079850;28;20110;-34
2023/06/13 01:21:19;;;;;;;8.38;6.72;;;16.60;64.00;;;;;;5064068;28;20032;-37
2023/06/13 01:23:52;;;;;;;8.70;7.28;;;16.60;64.50;;;;;;5108025;28;20023;-34
2023/06/13 01:26:56;;;;;;;7.03;6.27;;;16.60;65.60;;;;;;5066025;28;20043;-33
2023/06/13 01:29:22;;;;;;;7.68;6.97;;;16.50;64.80;;;;;;5073774;28;20697;-34
2023/06/13 01:31:53;;;;;;;8.07;7.28;;;16.50;64.80;;;;;;5080527;28;20114;-35
2023/06/13 01:34:21;;;;;;;8.88;7.10;;;16.60;65.30;;;;;;5068042;28;20086;-34
2023/06/13 01:36:47;;;;;;;7.65;6.85;;;16.50;66.40;;;;;;5056965;28;20111;-33
2023/06/13 01:39:14;;;;;;;8.90;6.75;;;16.50;65.30;;;;;;5076904;28;20323;-34
2023/06/13 01:41:39;;;;;;;8.38;6.43;;;16.50;65.70;;;;;;5078901;28;20035;-34
2023/06/13 01:44:06;;;;;;;7.80;6.25;;;16.50;65.10;;;;;;5080515;28;20402;-33
2023/06/13 01:47:01;;;;;;;8.10;7.07;;;16.50;65.40;;;;;;5066096;28;20050;-34
2023/06/13 01:49:53;;;;;;;13.15;7.35;;;16.50;66.00;;;;;;5066934;28;20098;-34
2023/06/13 01:52:30;;;;;;;7.38;6.68;;;16.40;66.00;;;;;;5073082;28;20485;-33
2023/06/13 01:55:02;;;;;;;9.55;7.00;;;16.40;66.00;;;;;;5068941;28;20071;-33
2023/06/13 01:57:36;;;;;;;8.40;7.53;;;16.40;66.70;;;;;;5080832;28;20036;-34
2023/06/13 02:00:03;;;;;;;7.40;6.72;;;16.40;66.40;;;;;;5088614;28;20032;-34
2023/06/13 02:02:29;;;;;;;9.10;7.25;;;16.30;66.60;;;;;;5084250;28;20443;-34
2023/06/13 02:04:56;;;;;;;9.10;7.25;;;16.30;66.80;;;;;;5090923;28;20362;-34
2023/06/13 02:07:22;;;;;;;7.28;6.57;;;16.30;67.50;;;;;;5075999;28;20065;-33
2023/06/13 02:09:48;;;;;;;9.45;6.70;;;16.30;67.50;;;;;;5086513;28;20042;-33
2023/06/13 02:12:14;;;;;;;7.70;6.53;;;16.30;67.30;;;;;;5086415;28;20036;-35
2023/06/13 02:14:40;;;;;;;7.55;6.57;;;16.20;67.30;;;;;;5073057;28;20040;-33
2023/06/13 02:17:06;;;;;;;7.35;6.47;;;16.20;68.10;;;;;;5082208;28;20357;-34
2023/06/13 02:19:32;;;;;;;7.15;6.45;;;16.20;67.60;;;;;;5074229;28;20041;-33
2023/06/13 02:21:58;;;;;;;6.65;6.05;;;16.10;67.20;;;;;;5081703;28;20027;-33
2023/06/13 02:24:23;;;;;;;7.57;6.88;;;16.10;68.50;;;;;;5077998;28;20035;-33
2023/06/13 02:26:50;;;;;;;11.50;7.13;;;16.10;69.00;;;;;;5079714;28;20077;-34
2023/06/13 02:29:18;;;;;;;6.97;6.32;;;16.00;69.60;;;;;;5067347;28;20040;-33
2023/06/13 02:31:44;;;;;;;7.65;6.85;;;15.90;71.70;;;;;;5079586;28;20044;-35
2023/06/13 02:34:11;;;;;;;7.13;6.43;;;15.90;72.50;;;;;;5085332;28;20036;-33
2023/06/13 02:36:37;;;;;;;8.50;6.80;;;15.80;74.20;;;;;;5065726;28;20352;-33
2023/06/13 02:39:03;;;;;;;8.30;6.60;;;15.80;74.70;;;;;;5080655;28;20440;-32
2023/06/13 02:41:29;;;;;;;6.88;6.05;;;15.70;74.80;;;;;;5087752;28;20475;-34
2023/06/13 02:43:55;;;;;;;7.40;6.60;;;15.70;75.50;;;;;;5089909;28;20089;-37
2023/06/13 02:46:21;;;;;;;9.25;7.10;;;15.70;76.20;;;;;;5074888;28;20040;-34
2023/06/13 02:48:47;;;;;;;7.20;6.50;;;15.70;76.50;;;;;;5085022;28;20503;-34
2023/06/13 02:51:12;;;;;;;10.73;6.45;;;15.70;77.00;;;;;;5079204;28;20088;-33
2023/06/13 02:53:38;;;;;;;7.25;6.55;;;15.60;78.10;;;;;;5079375;28;20044;-34
2023/06/13 02:56:04;;;;;;;7.78;6.95;;;15.60;79.40;;;;;;5090025;28;20415;-34
2023/06/13 02:58:29;;;;;;;8.38;6.30;;;15.60;80.60;;;;;;5078852;28;20048;-34
2023/06/13 03:00:55;;;;;;;6.90;6.10;;;15.50;80.90;;;;;;5073254;28;20086;-33
2023/06/13 03:03:24;;;;;;;8.45;6.78;;;15.50;81.50;;;;;;5083354;28;20397;-34
2023/06/13 03:05:56;;;;;;;6.53;5.93;;;15.50;82.80;;;;;;5073251;28;20036;-33
2023/06/13 03:08:22;;;;;;;7.30;6.53;;;15.40;83.80;;;;;;5075020;28;20040;-33
2023/06/13 03:10:50;;;;;;;7.28;6.05;;;15.40;83.90;;;;;;5084093;28;20032;-33
2023/06/13 03:13:16;;;;;;;6.88;6.22;;;15.30;84.10;;;;;;5087157;28;20039;-32
2023/06/13 03:15:45;;;;;;;7.82;7.03;;;15.30;85.70;;;;;;5078082;28;20032;-34
2023/06/13 03:18:11;;;;;;;8.18;6.35;;;15.30;87.90;;;;;;5087250;28;20036;-34
2023/06/13 03:20:37;;;;;;;8.07;6.18;;;15.20;89.70;;;;;;5077184;28;20071;-34
2023/06/13 03:23:05;;;;;;;7.32;6.53;;;15.20;90.40;;;;;;5083921;28;20064;-33
2023/06/13 03:25:31;;;;;;;7.40;6.22;;;15.20;91.00;;;;;;5085198;28;20020;-37
2023/06/13 03:27:56;;;;;;;8.82;6.55;;;15.10;91.80;;;;;;5079732;28;20028;-36
2023/06/13 03:30:22;;;;;;;6.38;5.72;;;15.10;92.00;;;;;;5087384;28;20094;-35
2023/06/13 03:32:48;;;;;;;7.28;6.55;;;15.10;93.00;;;;;;5082673;28;20482;-34
2023/06/13 03:35:14;;;;;;;12.75;6.07;;;15.00;93.60;;;;;;5086597;28;20035;-34
2023/06/13 03:37:39;;;;;;;10.25;6.25;;;15.00;93.80;;;;;;5080789;28;20050;-34
2023/06/13 03:40:06;;;;;;;7.45;6.50;;;15.00;94.10;;;;;;5088564;28;20127;-34
2023/06/13 03:42:31;;;;;;;9.57;6.03;;;15.00;94.80;;;;;;5084032;28;20032;-34
2023/06/13 03:44:57;;;;;;;8.45;6.05;;;15.00;95.60;;;;;;5074521;28;20465;-33
2023/06/13 03:47:23;;;;;;;7.18;6.18;;;15.00;95.90;;;;;;5078475;28;20032;-34
2023/06/13 03:49:49;;;;;;;8.05;5.93;;;15.00;96.20;;;;;;5082054;28;20036;-34
2023/06/13 03:52:14;;;;;;;6.93;6.28;;;15.00;96.80;;;;;;5088867;28;20066;-35
2023/06/13 03:54:40;;;;;;;8.95;5.88;;;15.00;97.00;;;;;;5075920;28;20401;-35
2023/06/13 03:57:10;;;;;;;7.25;6.18;;;15.00;96.80;;;;;;5079435;28;20029;-33
2023/06/13 03:59:36;;;;;;;5.88;5.40;;;15.00;97.00;;;;;;5078313;28;20031;-32
2023/06/13 04:02:03;;;;;;;6.97;5.93;;;15.00;97.50;;;;;;5075958;28;20454;-33
2023/06/13 04:04:29;;;;;;;6.78;6.05;;;15.00;97.80;;;;;;5079405;28;20034;-33
2023/06/13 04:06:55;;;;;;;6.95;6.10;;;15.00;97.90;;;;;;5076799;28;20039;-34
2023/06/13 04:09:22;;;;;;;12.93;6.30;;;15.00;98.40;;;;;;5085895;28;20088;-33
2023/06/13 04:11:48;;;;;;;6.82;6.15;;;15.10;99.10;;;;;;5085494;28;20139;-34
2023/06/13 04:14:13;;;;;;;6.85;6.13;;;15.00;99.40;;;;;;5080791;28;20130;-35
2023/06/13 04:16:39;;;;;;;7.43;5.95;;;15.00;99.60;;;;;;5075378;28;20038;-32
2023/06/13 04:19:07;;;;;;;7.07;5.95;;;15.00;99.90;;;;;;5074742;28;20044;-33
2023/06/13 04:21:32;;;;;;;6.53;5.32;;;15.10;99.90;;;;;;5079751;28;20036;-33
2023/06/13 04:23:58;;;;;;;6.88;6.25;;;15.10;99.90;;;;;;5082164;28;20039;-34
2023/06/13 04:26:25;;;;;;;7.10;6.40;;;15.10;99.70;;;;;;5079510;28;20131;-35
2023/06/13 04:28:52;;;;;;;7.40;6.28;;;15.10;99.40;;;;;;5085657;28;20081;-33
2023/06/13 04:31:20;;;;;;;7.55;6.03;;;15.10;99.10;;;;;;5076880;28;20062;-34
2023/06/13 04:33:46;;;;;;;6.10;5.20;;;15.20;99.00;;;;;;5077662;28;20036;-33
2023/06/13 04:36:13;;;;;;;8.02;5.47;;;15.20;98.50;;;;;;5071117;28;20084;-35
2023/06/13 04:38:39;;;;;;;7.60;5.57;;;15.30;99.10;;;;;;5061894;28;20040;-34
2023/06/13 04:41:13;;;;;;;10.63;6.88;;;15.30;99.80;;;;;;5066685;28;20405;-34
2023/06/13 04:43:40;;;;;;;8.25;5.53;;;15.40;99.80;;;;;;5063208;28;20055;-36
2023/06/13 04:46:07;;;;;;;6.25;5.45;;;15.40;99.80;;;;;;5065108;28;20044;-34
2023/06/13 04:48:35;;;;;;;13.00;6.07;;;15.50;99.30;;;;;;5069154;28;20063;-34
2023/06/13 04:51:02;;;;;;;7.10;5.95;;;15.50;99.20;;;;;;5067690;28;20123;-34
2023/06/13 04:53:32;;;;;;;8.38;6.00;;;15.60;98.30;;;;;;5078633;28;20042;-34
2023/06/13 04:55:58;;;;;;;6.35;5.72;;;15.60;97.90;;;;;;5085813;28;20130;-33
2023/06/13 04:58:24;;;;;;;5.85;5.30;;;15.70;98.50;;;;;;5075349;28;20131;-33
2023/06/13 05:00:55;;;;;;;6.68;6.03;;;15.80;98.10;;;;;;5064917;28;20036;-33
2023/06/13 05:03:23;;;;;;;7.53;5.63;;;15.80;98.10;;;;;;5074526;28;20124;-34
2023/06/13 05:05:50;;;;;;;9.75;5.50;;;15.80;97.90;;;;;;5072219;28;20115;-33
2023/06/13 05:08:21;;;;;;;8.35;5.88;;;15.90;97.90;;;;;;5071275;28;20402;-33
2023/06/13 05:10:47;;;;;;;6.32;5.03;;;16.00;97.80;;;;;;5078960;28;20035;-32
2023/06/13 05:13:14;;;;;;;5.90;5.30;;;16.10;97.60;;;;;;5066262;28;20121;-34
2023/06/13 05:15:42;;;;;;;7.07;4.93;;;16.10;97.60;;;;;;5067644;28;20043;-33
2023/06/13 05:18:12;;;;;;;5.53;5.03;;;16.20;97.90;;;;;;5071604;28;20047;-34
2023/06/13 05:20:38;;;;;;;6.53;5.25;;;16.30;97.80;;;;;;5064098;28;20024;-34
2023/06/13 05:23:04;;;;;;;5.13;4.63;;;16.40;97.60;;;;;;5076602;28;20032;-34
2023/06/13 05:25:30;;;;;;;5.65;5.15;;;16.50;97.40;;;;;;5059118;28;20040;-34
2023/06/13 05:27:56;;;;;;;5.28;4.70;;;16.60;96.90;;;;;;5079650;28;20485;-34
2023/06/13 05:30:22;;;;;;;5.90;5.07;;;16.60;96.20;;;;;;5076429;28;20047;-35
2023/06/13 05:32:47;;;;;;;9.80;5.70;;;16.70;96.40;;;;;;5064183;28;20081;-34
2023/06/13 05:35:13;;;;;;;7.40;4.60;;;16.80;96.60;;;;;;5073596;28;20033;-32
2023/06/13 05:37:39;;;;;;;6.53;5.07;;;17.00;96.10;;;;;;5062529;28;20039;-33
2023/06/13 05:40:06;;;;;;;5.65;4.90;;;17.10;95.60;;;;;;5063169;28;20127;-33
2023/06/13 05:42:34;;;;;;;5.70;5.10;;;17.10;95.30;;;;;;5080124;28;20031;-33
2023/06/13 05:45:03;;;;;;;7.10;4.68;;;17.20;95.00;;;;;;5069403;28;20033;-33
2023/06/13 05:47:29;;;;;;;9.80;5.18;;;17.30;95.00;;;;;;5069205;28;20169;-33
2023/06/13 05:49:55;;;;;;;5.30;4.80;;;17.40;94.70;;;;;;5075900;28;20510;-34
2023/06/13 05:52:20;;;;;;;7.38;5.03;;;17.60;94.30;;;;;;5084296;28;20035;-33
2023/06/13 05:54:46;;;;;;;6.00;5.18;;;17.70;94.00;;;;;;5076476;28;20032;-34
2023/06/13 05:57:13;;;;;;;4.72;4.22;;;17.70;93.40;;;;;;5088222;28;20477;-33
2023/06/13 05:59:39;;;;;;;6.20;4.72;;;17.90;93.00;;;;;;5071350;28;20050;-34
2023/06/13 06:02:05;;;;;;;4.65;4.18;;;18.00;92.90;;;;;;5074041;28;20433;-33
2023/06/13 06:04:31;;;;;;;6.90;4.50;;;18.00;92.60;;;;;;5080763;28;20437;-34
2023/06/13 06:06:57;;;;;;;5.90;4.68;;;18.10;93.10;;;;;;5051087;28;20119;-34
2023/06/13 06:09:22;;;;;;;6.50;4.13;;;18.20;92.40;;;;;;5082663;28;20110;-33
2023/06/13 06:11:50;;;;;;;7.38;4.93;;;18.30;91.80;;;;;;5064874;28;20058;-32
2023/06/13 06:14:16;;;;;;;6.15;4.55;;;18.40;91.90;;;;;;5079474;28;20040;-32
2023/06/13 06:16:41;;;;;;;5.70;4.80;;;18.50;90.90;;;;;;5072418;28;20120;-33
2023/06/13 06:19:08;;;;;;;6.10;4.90;;;18.60;89.90;;;;;;5092054;28;20033;-35
2023/06/13 06:21:33;;;;;;;8.02;4.90;;;18.70;89.20;;;;;;5084003;28;20520;-35
2023/06/13 06:23:59;;;;;;;6.03;4.78;;;18.70;87.80;;;;;;5074852;28;20060;-33
2023/06/13 06:26:26;;;;;;;5.60;4.95;;;18.70;86.60;;;;;;5077720;28;20098;-34
2023/06/13 06:28:52;;;;;;;5.00;4.60;;;18.80;87.50;;;;;;5063290;28;20040;-33
2023/06/13 06:31:18;;;;;;;5.45;4.80;;;18.90;88.70;;;;;;5072701;28;20034;-35
2023/06/13 06:33:44;;;;;;;6.53;4.95;;;19.10;87.00;;;;;;5065096;28;20397;-33
2023/06/13 06:36:10;;;;;;;5.00;4.50;;;19.20;86.90;;;;;;5079993;28;20044;-33
2023/06/13 06:38:35;;;;;;;7.38;4.68;;;19.30;85.50;;;;;;5072666;28;20452;-36
2023/06/13 06:41:01;;;;;;;5.57;4.30;;;19.40;85.20;;;;;;5077585;28;20082;-33
2023/06/13 06:43:27;;;;;;;4.82;4.43;;;19.50;85.10;;;;;;5078842;28;20042;-32
2023/06/13 06:45:53;;;;;;;6.93;4.85;;;19.60;85.70;;;;;;5064294;28;20048;-33
2023/06/13 06:48:18;;;;;;;6.05;4.72;;;19.70;83.70;;;;;;5083599;28;20036;-33
2023/06/13 06:50:44;;;;;;;5.80;4.80;;;19.70;80.30;;;;;;5067693;28;20036;-36
2023/06/13 06:53:10;;;;;;;6.55;4.80;;;19.70;78.00;;;;;;5077406;28;20055;-33
2023/06/13 06:55:36;;;;;;;7.03;4.80;;;19.80;77.20;;;;;;5075497;28;20042;-34
2023/06/13 06:58:02;;;;;;;7.25;5.40;;;19.90;78.00;;;;;;5086072;28;20040;-33
2023/06/13 07:00:27;;;;;;;6.47;4.85;;;20.00;77.20;;;;;;5068401;28;20519;-35
2023/06/13 07:02:54;;;;;;;5.65;5.13;;;20.10;76.40;;;;;;5086460;28;20224;-36
2023/06/13 07:05:20;;;;;;;6.70;4.65;;;20.10;75.20;;;;;;5072231;28;20401;-34
2023/06/13 07:07:46;;;;;;;5.45;4.65;;;20.30;75.10;;;;;;5061832;28;20036;-34
2023/06/13 07:10:12;;;;;;;9.02;4.80;;;20.40;75.00;;;;;;5081256;28;20131;-35
2023/06/13 07:12:39;;;;;;;10.18;5.10;;;20.60;74.30;;;;;;5081360;28;20036;-37
2023/06/13 07:15:05;;;;;;;6.90;5.45;;;20.70;73.10;;;;;;5086105;28;20067;-36
2023/06/13 07:17:31;;;;;;;6.63;5.25;;;20.80;72.60;;;;;;5079631;28;20112;-35
2023/06/13 07:19:57;;;;;;;5.63;5.20;;;20.90;72.40;;;;;;5064436;28;20092;-37
2023/06/13 07:22:23;;;;;;;6.28;5.68;;;21.00;70.60;;;;;;5062476;28;20039;-37
2023/06/13 07:24:52;;;;;;;5.90;5.22;;;21.20;71.00;;;;;;5058111;28;20072;-32
2023/06/13 07:27:18;;;;;;;6.47;5.53;;;21.20;70.10;;;;;;5039188;28;20070;-32
2023/06/13 07:29:44;;;;;;;6.15;5.38;;;21.20;68.60;;;;;;5055487;28;20549;-33
2023/06/13 07:32:10;;;;;;;7.97;5.88;;;21.30;67.30;;;;;;5055727;28;20093;-32
2023/06/13 07:34:36;;;;;;;7.30;5.30;;;21.30;66.20;;;;;;5055781;28;20435;-33
2023/06/13 07:37:03;;;;;;;5.65;4.90;;;21.40;66.20;;;;;;5055348;28;20075;-32
2023/06/13 07:39:29;;;;;;;5.40;4.90;;;21.60;67.10;;;;;;5055502;28;20513;-32
2023/06/13 07:41:55;;;;;;;7.78;5.25;;;21.80;66.90;;;;;;5055667;28;20029;-36
2023/06/13 07:44:21;;;;;;;5.78;5.15;;;22.00;65.20;;;;;;5073261;28;20032;-35
2023/06/13 07:46:48;;;;;;;8.80;5.35;;;22.10;64.40;;;;;;5083715;28;20035;-36
2023/06/13 07:49:14;;;;;;;9.05;5.57;;;22.20;65.20;;;;;;5075130;28;20460;-36
2023/06/13 07:51:40;;;;;;;8.07;5.30;;;22.40;64.90;;;;;;5067381;28;20040;-33
2023/06/13 07:54:06;;;;;;;5.93;4.90;;;22.40;63.10;;;;;;5063079;28;20043;-34
2023/06/13 07:56:32;;;;;;;5.72;4.90;;;22.50;62.10;;;;;;5082360;28;20085;-35
2023/06/13 07:58:58;;;;;;;8.38;5.32;;;22.60;62.30;;;;;;5074408;28;20062;-33
2023/06/13 08:01:24;;;;;;;7.53;5.60;;;22.60;62.10;;;;;;5078533;28;20489;-35
2023/06/13 08:03:50;;;;;;;5.85;5.20;;;22.80;61.60;;;;;;5077016;28;20439;-34
2023/06/13 08:06:16;;;;;;;6.20;5.38;;;22.90;60.60;;;;;;5076881;28;20089;-36
2023/06/13 08:08:42;;;;;;;6.20;5.10;;;23.00;60.40;;;;;;5084104;28;20050;-33
2023/06/13 08:11:08;;;;;;;7.03;4.88;;;23.20;59.80;;;;;;5074568;28;20366;-33
2023/06/13 08:13:33;;;;;;;5.20;4.65;;;23.30;59.20;;;;;;5077021;28;20474;-33
2023/06/13 08:16:01;;;;;;;6.28;5.25;;;23.50;58.60;;;;;;5066002;28;20029;-33
2023/06/13 08:18:27;;;;;;;5.47;4.93;;;23.60;58.00;;;;;;5081011;28;20036;-36
2023/06/13 08:20:53;;;;;;;5.80;5.20;;;23.80;57.70;;;;;;5065114;28;20061;-34
2023/06/13 08:23:18;;;;;;;5.63;5.07;;;23.90;57.30;;;;;;5076714;28;20024;-34
2023/06/13 08:25:45;;;;;;;5.90;5.40;;;24.20;57.70;;;;;;5080015;28;20075;-37
2023/06/13 08:28:11;;;;;;;7.68;4.95;;;24.50;57.40;;;;;;5075233;28;20050;-35
2023/06/13 08:30:37;;;;;;;8.43;4.95;;;24.60;56.50;;;;;;5077844;28;20055;-35
2023/06/13 08:33:03;;;;;;;5.60;4.57;;;24.60;54.90;;;;;;5071131;28;20115;-37
2023/06/13 08:35:30;;;;;;;6.80;4.90;;;24.70;55.00;;;;;;5069648;28;20365;-34
2023/06/13 08:37:56;;;;;;;5.72;4.95;;;24.70;55.10;;;;;;5080188;28;20391;-34
2023/06/13 08:40:22;;;;;;;6.05;5.03;;;24.90;54.60;;;;;;5085166;28;20046;-33
2023/06/13 08:42:48;;;;;;;5.43;4.20;;;25.10;54.50;;;;;;5073417;28;20032;-33
2023/06/13 08:45:15;;;;;;;5.60;4.38;;;25.30;53.80;;;;;;5083606;28;20079;-33
2023/06/13 08:47:46;;;;;;;4.55;4.25;;;25.40;53.30;;;;;;5092520;28;20050;-34
2023/06/13 08:50:14;;;;;;;5.85;4.40;;;25.50;52.80;;;;;;5078965;28;20046;-33
2023/06/13 08:52:41;;;;;;;7.72;4.40;;;25.70;52.70;;;;;;5077357;28;20039;-34
2023/06/13 08:55:13;;;;;;;5.25;4.20;;;25.80;51.70;;;;;;5071218;28;20511;-34
2023/06/13 08:57:42;;;;;;;8.05;4.10;;;25.90;51.40;;;;;;5073375;28;20445;-34
2023/06/13 09:00:13;;;;;;;4.63;4.22;;;26.10;50.70;;;;;;5078781;28;20031;-34
2023/06/13 09:02:46;;;;;;;4.88;4.38;;;26.30;50.50;;;;;;5079430;28;20115;-33
2023/06/13 09:05:15;;;;;;;4.53;4.13;;;26.50;50.00;;;;;;5083983;28;20071;-35
2023/06/13 09:07:46;;;;;;;6.95;4.20;;;26.60;50.10;;;;;;5072375;28;20040;-34
2023/06/13 09:10:12;;;;;;;5.25;4.30;;;26.80;49.60;;;;;;5074037;28;20582;-36
2023/06/13 09:12:45;;;;;;;5.30;4.15;;;27.10;49.40;;;;;;5080824;28;20046;-34
2023/06/13 09:15:11;;;;;;;4.82;4.43;;;27.30;48.50;;;;;;5073809;28;20042;-34
2023/06/13 09:17:37;;;;;;;6.03;4.28;;;27.40;48.20;;;;;;5069918;28;20108;-33
2023/06/13 09:20:07;;;;;;;6.13;4.57;;;27.50;48.50;;;;;;5076538;28;20043;-34
2023/06/13 09:22:34;;;;;;;4.90;4.40;;;27.50;48.30;;;;;;5074235;28;20508;-34
2023/06/13 09:25:00;;;;;;;6.90;4.25;;;27.80;48.60;;;;;;5085625;28;20028;-34
2023/06/13 09:27:30;;;;;;;5.40;4.47;;;27.70;47.40;;;;;;5077682;28;20043;-34
2023/06/13 09:29:59;;;;;;;14.52;4.75;;;27.80;46.40;;;;;;5081687;28;20039;-34
2023/06/13 09:32:25;;;;;;;5.45;4.13;;;27.80;46.90;;;;;;5086018;28;20044;-35
2023/06/13 09:34:51;;;;;;;5.35;4.10;;;28.00;47.50;;;;;;5081487;28;20512;-35
2023/06/13 09:37:17;;;;;;;5.97;4.38;;;28.10;46.90;;;;;;5073336;28;20031;-34
2023/06/13 09:39:55;;;;;;;5.00;4.35;;;28.30;46.30;;;;;;5097226;28;20077;-35
2023/06/13 09:42:22;;;;;;;6.15;4.40;;;28.30;44.50;;;;;;5082870;28;20084;-34
2023/06/13 09:44:49;;;;;;;4.70;4.18;;;28.30;45.50;;;;;;5072325;28;20498;-34
2023/06/13 09:47:25;;;;;;;4.82;4.32;;;28.40;44.60;;;;;;5084796;28;20047;-34
2023/06/13 09:50:00;;;;;;;5.03;4.32;;;28.50;43.00;;;;;;5077702;28;20047;-36
2023/06/13 09:52:27;;;;;;;4.50;4.10;;;28.60;44.20;;;;;;5071547;28;20100;-34
2023/06/13 09:54:54;;;;;;;4.55;4.07;;;29.00;43.80;;;;;;5077736;28;20031;-36
2023/06/13 09:57:21;;;;;;;4.25;3.88;;;29.10;42.80;;;;;;5070348;28;20104;-35
2023/06/13 09:59:50;;;;;;;3.85;3.45;;;29.20;42.40;;;;;;5057507;28;20046;-36
2023/06/13 10:02:17;;;;;;;5.07;4.00;;;29.30;43.10;;;;;;5051535;28;20559;-34
2023/06/13 10:04:43;;;;;;;4.28;3.33;;;29.10;42.20;;;;;;5069728;28;20119;-34
2023/06/13 10:07:11;;;;;;;4.50;3.88;;;29.10;41.70;;;;;;5079547;28;20041;-37
2023/06/13 10:09:37;;;;;;;5.35;4.00;;;29.10;40.60;;;;;;5077368;28;20040;-34
2023/06/13 10:12:08;;;;;;;4.47;4.03;;;29.40;40.70;;;;;;5081374;28;20031;-37
2023/06/13 10:14:39;;;;;;;5.35;3.88;;;29.40;40.90;;;;;;5078801;28;20035;-34
2023/06/13 10:17:10;;;;;;;4.60;4.20;;;29.60;42.00;;;;;;5082342;28;20092;-37
2023/06/13 10:19:41;;;;;;;6.60;3.97;;;29.80;42.00;;;;;;5074850;28;20431;-35
2023/06/13 10:22:08;;;;;;;6.75;4.15;;;30.20;40.20;;;;;;5088109;28;20027;-36
2023/06/13 10:24:36;;;;;;;5.28;4.65;;;30.30;40.10;;;;;;5071042;28;20478;-35
2023/06/13 10:27:04;;;;;;;4.45;4.05;;;30.60;40.50;;;;;;5083217;28;20396;-37
2023/06/13 10:29:51;;;;;;;6.90;4.20;;;30.80;38.60;;;;;;5075381;28;20048;-35
2023/06/13 10:32:35;;;;;;;4.32;4.00;;;30.70;37.90;;;;;;5073206;28;20032;-35
2023/06/13 10:35:31;;;;;;;5.25;4.72;;;30.70;38.50;;;;;;5078224;28;20033;-35
2023/06/13 10:38:14;;;;;;;6.97;3.83;;;30.60;37.20;;;;;;5082468;28;20036;-35
2023/06/13 10:41:14;;;;;;;4.13;3.83;;;30.70;37.60;;;;;;5076482;28;20043;-34
2023/06/13 10:43:55;;;;;;;4.70;3.88;;;31.00;36.00;;;;;;5071162;28;20101;-34
2023/06/13 10:46:21;;;;;;;4.35;3.92;;;31.20;37.70;;;;;;5082469;28;20119;-37
2023/06/13 10:48:49;;;;;;;4.80;4.03;;;31.20;36.80;;;;;;5082649;28;20122;-34
2023/06/13 10:51:36;;;;;;;5.80;4.45;;;31.20;36.60;;;;;;5081898;28;20047;-35
2023/06/13 10:54:02;;;;;;;4.70;4.28;;;31.70;36.90;;;;;;5076228;28;20101;-35
2023/06/13 10:56:32;;;;;;;5.25;3.92;;;31.70;36.80;;;;;;5078982;28;20032;-35
2023/06/13 10:59:07;;;;;;;5.32;4.40;;;31.90;36.30;;;;;;5080392;28;20036;-35
2023/06/13 11:01:34;;;;;;;4.65;4.20;;;32.10;35.80;;;;;;5071172;28;20028;-35
2023/06/13 11:04:11;;;;;;;5.13;4.68;;;32.30;35.70;;;;;;5074021;28;20028;-35
2023/06/13 11:06:42;;;;;;;5.35;4.68;;;32.50;31.70;;;;;;5071542;28;20040;-40
2023/06/13 11:09:25;;;;;;;5.10;4.63;;;32.30;33.10;;;;;;5080570;28;20040;-35
2023/06/13 11:11:56;;;;;;;6.47;4.55;;;32.20;34.40;;;;;;5073616;28;20461;-38
2023/06/13 11:14:30;;;;;;;4.80;4.30;;;32.10;33.50;;;;;;5075371;28;20043;-35
2023/06/13 11:16:56;;;;;;;5.03;4.53;;;32.20;34.70;;;;;;5067497;28;20043;-35
2023/06/13 11:19:23;;;;;;;4.88;4.43;;;32.10;34.40;;;;;;5073000;28;20036;-35
2023/06/13 11:22:11;;;;;;;6.13;4.35;;;32.10;34.00;;;;;;5072583;28;20035;-37
2023/06/13 11:24:37;;;;;;;4.90;4.38;;;32.20;30.70;;;;;;5061720;28;20107;-34
2023/06/13 11:27:04;;;;;;;4.47;4.07;;;32.10;33.00;;;;;;5075201;28;20028;-35
2023/06/13 11:29:33;;;;;;;4.60;4.25;;;32.00;33.20;;;;;;5069547;28;20115;-34
2023/06/13 11:32:02;;;;;;;6.82;4.50;;;32.40;33.90;;;;;;5075478;28;20028;-35
2023/06/13 11:34:32;;;;;;;4.75;4.35;;;32.60;33.90;;;;;;5076192;28;20039;-38
2023/06/13 11:37:10;;;;;;;5.60;4.30;;;32.60;33.10;;;;;;5073128;28;20035;-38
2023/06/13 11:39:41;;;;;;;4.35;4.03;;;33.10;33.40;;;;;;5073841;28;20554;-37
2023/06/13 11:42:08;;;;;;;4.22;3.83;;;33.30;33.50;;;;;;5074532;28;20483;-35
2023/06/13 11:44:37;;;;;;;5.30;4.18;;;33.30;33.40;;;;;;5068631;28;20466;-39
2023/06/13 11:47:03;;;;;;;4.35;3.95;;;33.10;32.10;;;;;;5064883;28;20028;-36
2023/06/13 11:49:29;;;;;;;4.60;4.20;;;33.20;31.70;;;;;;5067640;28;20042;-37
2023/06/13 11:51:55;;;;;;;4.93;4.40;;;33.40;32.80;;;;;;5067223;28;20401;-38
2023/06/13 11:54:31;;;;;;;5.43;3.90;;;33.50;32.60;;;;;;5074204;28;20153;-37
2023/06/13 11:56:56;;;;;;;5.30;4.10;;;33.70;32.10;;;;;;5062927;28;20039;-38
2023/06/13 11:59:24;;;;;;;4.35;3.95;;;33.70;32.30;;;;;;5076303;28;20525;-36
2023/06/13 12:01:52;;;;;;;4.65;3.95;;;33.60;32.50;;;;;;5074264;28;20070;-37
2023/06/13 12:04:25;;;;;;;5.38;4.30;;;33.40;31.90;;;;;;5085312;28;20037;-36
2023/06/13 12:06:54;;;;;;;4.82;4.05;;;33.50;32.10;;;;;;5086282;28;20506;-38
2023/06/13 12:09:20;;;;;;;4.82;4.35;;;33.60;32.60;;;;;;5076053;28;20408;-37
2023/06/13 12:11:46;;;;;;;4.95;3.95;;;33.60;32.20;;;;;;5076025;28;20043;-36
2023/06/13 12:14:13;;;;;;;4.75;4.32;;;33.60;31.80;;;;;;5083458;28;20437;-37
2023/06/13 12:16:39;;;;;;;5.10;4.63;;;33.50;30.80;;;;;;5074278;28;20034;-36
2023/06/13 12:19:06;;;;;;;4.63;4.22;;;33.70;31.00;;;;;;5072195;28;20048;-38
2023/06/13 12:21:35;;;;;;;5.10;4.30;;;33.70;30.70;;;;;;5081023;28;20028;-38
2023/06/13 12:24:06;;;;;;;5.63;4.10;;;34.10;31.50;;;;;;5075289;28;20092;-38
2023/06/13 12:26:34;;;;;;;7.80;4.73;;;34.60;32.40;;;;;;5086514;28;20098;-39
2023/06/13 12:29:06;;;;;;;5.93;5.00;;;34.70;32.40;;;;;;5078552;28;20039;-39
2023/06/13 12:31:38;;;;;;;4.55;3.72;;;34.80;32.10;;;;;;5076638;28;20043;-37
2023/06/13 12:34:16;;;;;;;5.18;4.03;;;34.90;31.40;;;;;;5077435;28;20084;-39
2023/06/13 12:36:44;;;;;;;5.70;4.63;;;35.00;31.20;;;;;;5072945;28;20036;-37
2023/06/13 12:39:14;;;;;;;4.18;3.88;;;35.30;32.30;;;;;;5076068;28;20068;-36
2023/06/13 12:41:48;;;;;;;7.88;4.43;;;35.70;31.30;;;;;;5066229;28;20040;-37
2023/06/13 12:44:14;;;;;;;4.88;4.40;;;35.90;31.00;;;;;;5072431;28;20036;-37
2023/06/13 12:46:41;;;;;;;4.45;4.05;;;35.70;31.70;;;;;;5055548;28;20060;-36
2023/06/13 12:49:08;;;;;;;4.57;4.18;;;35.40;30.60;;;;;;5080245;28;20118;-37
2023/06/13 12:51:39;;;;;;;4.20;3.90;;;35.40;31.00;;;;;;5070247;28;20201;-40